sensor_id;sensor_type;location;lat;lon;timestamp;P1;durP1;ratioP1;P2;durP2;ratioP2
4698;SDS011;33708;49.466;11.176;2022-10-22T00:02:24;17.23;;;8.30;;
4698;SDS011;33708;49.466;11.176;2022-10-22T00:04:51;16.53;;;8.20;;
4698;SDS011;33708;49.466;11.176;2022-10-22T00:07:18;17.00;;;7.67;;
4698;SDS011;33708;49.466;11.176;2022-10-22T00:09:45;16.63;;;7.37;;
4698;SDS011;33708;49.466;11.176;2022-10-22T00:12:11;27.30;;;8.33;;
4698;SDS011;33708;49.466;11.176;2022-10-22T00:14:38;16.40;;;7.30;;
4698;SDS011;33708;49.466;11.176;2022-10-22T00:17:04;18.97;;;8.00;;
4698;SDS011;33708;49.466;11.176;2022-10-22T00:19:29;22.23;;;8.27;;
4698;SDS011;33708;49.466;11.176;2022-10-22T00:21:55;13.93;;;7.13;;
4698;SDS011;33708;49.466;11.176;2022-10-22T00:24:22;21.90;;;8.27;;
4698;SDS011;33708;49.466;11.176;2022-10-22T00:26:48;14.23;;;7.40;;
4698;SDS011;33708;49.466;11.176;2022-10-22T00:29:13;17.00;;;7.87;;
4698;SDS011;33708;49.466;11.176;2022-10-22T00:31:39;18.40;;;7.73;;
4698;SDS011;33708;49.466;11.176;2022-10-22T00:34:05;36.77;;;7.40;;
4698;SDS011;33708;49.466;11.176;2022-10-22T00:36:30;23.23;;;9.20;;
4698;SDS011;33708;49.466;11.176;2022-10-22T00:38:56;28.07;;;8.10;;
4698;SDS011;33708;49.466;11.176;2022-10-22T00:41:21;23.37;;;7.90;;
4698;SDS011;33708;49.466;11.176;2022-10-22T00:43:54;21.37;;;7.23;;
4698;SDS011;33708;49.466;11.176;2022-10-22T00:46:25;22.40;;;7.77;;
4698;SDS011;33708;49.466;11.176;2022-10-22T00:48:51;22.47;;;7.37;;
4698;SDS011;33708;49.466;11.176;2022-10-22T00:51:19;16.60;;;7.23;;
4698;SDS011;33708;49.466;11.176;2022-10-22T00:53:53;26.20;;;6.30;;
4698;SDS011;33708;49.466;11.176;2022-10-22T00:56:22;23.50;;;8.00;;
4698;SDS011;33708;49.466;11.176;2022-10-22T00:58:50;17.17;;;5.80;;
4698;SDS011;33708;49.466;11.176;2022-10-22T01:01:27;16.43;;;5.90;;
4698;SDS011;33708;49.466;11.176;2022-10-22T01:03:55;16.77;;;6.17;;
4698;SDS011;33708;49.466;11.176;2022-10-22T01:06:25;23.93;;;7.50;;
4698;SDS011;33708;49.466;11.176;2022-10-22T01:14:32;22.00;;;6.50;;
4698;SDS011;33708;49.466;11.176;2022-10-22T01:25:37;15.83;;;5.77;;
4698;SDS011;33708;49.466;11.176;2022-10-22T01:31:15;14.30;;;6.00;;
4698;SDS011;33708;49.466;11.176;2022-10-22T01:33:44;18.93;;;6.10;;
4698;SDS011;33708;49.466;11.176;2022-10-22T01:36:11;15.93;;;5.87;;
4698;SDS011;33708;49.466;11.176;2022-10-22T01:38:38;15.00;;;5.00;;
4698;SDS011;33708;49.466;11.176;2022-10-22T01:41:05;15.90;;;5.77;;
4698;SDS011;33708;49.466;11.176;2022-10-22T01:43:31;15.13;;;5.17;;
4698;SDS011;33708;49.466;11.176;2022-10-22T01:45:58;17.23;;;5.20;;
4698;SDS011;33708;49.466;11.176;2022-10-22T01:53:41;16.73;;;5.20;;
4698;SDS011;33708;49.466;11.176;2022-10-22T01:58:52;24.43;;;5.20;;
4698;SDS011;33708;49.466;11.176;2022-10-22T02:01:40;14.57;;;4.40;;
4698;SDS011;33708;49.466;11.176;2022-10-22T02:04:18;10.80;;;5.17;;
4698;SDS011;33708;49.466;11.176;2022-10-22T02:06:46;14.83;;;5.03;;
4698;SDS011;33708;49.466;11.176;2022-10-22T02:09:16;13.50;;;5.23;;
4698;SDS011;33708;49.466;11.176;2022-10-22T02:11:45;17.80;;;5.47;;
4698;SDS011;33708;49.466;11.176;2022-10-22T02:14:13;13.10;;;5.20;;
4698;SDS011;33708;49.466;11.176;2022-10-22T02:16:42;12.93;;;4.97;;
4698;SDS011;33708;49.466;11.176;2022-10-22T02:21:48;18.20;;;5.90;;
4698;SDS011;33708;49.466;11.176;2022-10-22T02:24:14;13.27;;;4.70;;
4698;SDS011;33708;49.466;11.176;2022-10-22T02:27:00;14.40;;;5.20;;
4698;SDS011;33708;49.466;11.176;2022-10-22T02:29:55;13.77;;;4.77;;
4698;SDS011;33708;49.466;11.176;2022-10-22T02:33:16;16.80;;;4.87;;
4698;SDS011;33708;49.466;11.176;2022-10-22T02:35:25;14.27;;;4.57;;
4698;SDS011;33708;49.466;11.176;2022-10-22T02:37:52;14.73;;;4.90;;
4698;SDS011;33708;49.466;11.176;2022-10-22T02:40:20;18.13;;;6.20;;
4698;SDS011;33708;49.466;11.176;2022-10-22T02:42:47;17.30;;;4.73;;
4698;SDS011;33708;49.466;11.176;2022-10-22T02:45:14;14.70;;;6.23;;
4698;SDS011;33708;49.466;11.176;2022-10-22T02:47:41;19.73;;;6.00;;
4698;SDS011;33708;49.466;11.176;2022-10-22T02:50:07;18.13;;;6.30;;
4698;SDS011;33708;49.466;11.176;2022-10-22T02:52:32;15.30;;;4.70;;
4698;SDS011;33708;49.466;11.176;2022-10-22T02:54:58;13.33;;;5.53;;
4698;SDS011;33708;49.466;11.176;2022-10-22T02:57:24;27.33;;;7.10;;
4698;SDS011;33708;49.466;11.176;2022-10-22T02:59:49;18.53;;;5.87;;
4698;SDS011;33708;49.466;11.176;2022-10-22T03:02:15;16.80;;;5.20;;
4698;SDS011;33708;49.466;11.176;2022-10-22T03:04:40;14.23;;;4.03;;
4698;SDS011;33708;49.466;11.176;2022-10-22T03:07:06;15.17;;;4.63;;
4698;SDS011;33708;49.466;11.176;2022-10-22T03:09:32;13.53;;;5.67;;
4698;SDS011;33708;49.466;11.176;2022-10-22T03:11:57;14.30;;;5.13;;
4698;SDS011;33708;49.466;11.176;2022-10-22T03:14:23;12.30;;;4.60;;
4698;SDS011;33708;49.466;11.176;2022-10-22T03:16:48;20.97;;;5.57;;
4698;SDS011;33708;49.466;11.176;2022-10-22T03:19:14;14.43;;;4.97;;
4698;SDS011;33708;49.466;11.176;2022-10-22T03:21:44;12.23;;;5.00;;
4698;SDS011;33708;49.466;11.176;2022-10-22T03:24:15;14.67;;;5.00;;
4698;SDS011;33708;49.466;11.176;2022-10-22T03:26:45;12.80;;;4.93;;
4698;SDS011;33708;49.466;11.176;2022-10-22T03:29:13;25.43;;;7.00;;
4698;SDS011;33708;49.466;11.176;2022-10-22T03:31:39;17.43;;;8.00;;
4698;SDS011;33708;49.466;11.176;2022-10-22T03:34:05;19.03;;;7.70;;
4698;SDS011;33708;49.466;11.176;2022-10-22T03:36:31;13.83;;;6.23;;
4698;SDS011;33708;49.466;11.176;2022-10-22T03:38:58;14.30;;;6.10;;
4698;SDS011;33708;49.466;11.176;2022-10-22T03:41:25;13.53;;;6.20;;
4698;SDS011;33708;49.466;11.176;2022-10-22T03:43:50;23.60;;;6.17;;
4698;SDS011;33708;49.466;11.176;2022-10-22T03:46:18;14.93;;;5.93;;
4698;SDS011;33708;49.466;11.176;2022-10-22T03:48:44;14.03;;;6.20;;
4698;SDS011;33708;49.466;11.176;2022-10-22T03:51:09;17.03;;;6.10;;
4698;SDS011;33708;49.466;11.176;2022-10-22T03:53:35;13.97;;;5.97;;
4698;SDS011;33708;49.466;11.176;2022-10-22T03:56:00;13.57;;;5.13;;
4698;SDS011;33708;49.466;11.176;2022-10-22T03:58:26;11.00;;;4.57;;
4698;SDS011;33708;49.466;11.176;2022-10-22T04:00:52;16.97;;;4.87;;
4698;SDS011;33708;49.466;11.176;2022-10-22T04:03:18;22.33;;;6.63;;
4698;SDS011;33708;49.466;11.176;2022-10-22T04:05:43;13.40;;;5.03;;
4698;SDS011;33708;49.466;11.176;2022-10-22T04:08:09;11.83;;;4.50;;
4698;SDS011;33708;49.466;11.176;2022-10-22T04:10:34;8.63;;;3.43;;
4698;SDS011;33708;49.466;11.176;2022-10-22T04:13:00;9.90;;;4.60;;
4698;SDS011;33708;49.466;11.176;2022-10-22T04:15:26;10.13;;;3.60;;
4698;SDS011;33708;49.466;11.176;2022-10-22T04:17:53;18.43;;;3.70;;
4698;SDS011;33708;49.466;11.176;2022-10-22T04:20:19;13.80;;;4.60;;
4698;SDS011;33708;49.466;11.176;2022-10-22T04:22:44;11.50;;;4.00;;
4698;SDS011;33708;49.466;11.176;2022-10-22T04:25:10;9.80;;;3.70;;
4698;SDS011;33708;49.466;11.176;2022-10-22T04:27:35;12.00;;;4.27;;
4698;SDS011;33708;49.466;11.176;2022-10-22T04:30:02;15.90;;;3.50;;
4698;SDS011;33708;49.466;11.176;2022-10-22T04:32:29;9.57;;;3.37;;
4698;SDS011;33708;49.466;11.176;2022-10-22T04:34:55;15.50;;;3.80;;
4698;SDS011;33708;49.466;11.176;2022-10-22T04:37:20;9.07;;;3.00;;
4698;SDS011;33708;49.466;11.176;2022-10-22T04:39:46;14.60;;;3.70;;
4698;SDS011;33708;49.466;11.176;2022-10-22T04:42:12;9.20;;;3.20;;
4698;SDS011;33708;49.466;11.176;2022-10-22T04:44:38;16.90;;;4.03;;
4698;SDS011;33708;49.466;11.176;2022-10-22T04:47:04;18.57;;;3.53;;
4698;SDS011;33708;49.466;11.176;2022-10-22T04:49:29;11.10;;;3.93;;
4698;SDS011;33708;49.466;11.176;2022-10-22T04:51:55;10.23;;;3.53;;
4698;SDS011;33708;49.466;11.176;2022-10-22T04:54:20;13.87;;;3.33;;
4698;SDS011;33708;49.466;11.176;2022-10-22T04:56:46;11.40;;;2.63;;
4698;SDS011;33708;49.466;11.176;2022-10-22T04:59:12;10.73;;;3.20;;
4698;SDS011;33708;49.466;11.176;2022-10-22T05:01:39;8.60;;;2.70;;
4698;SDS011;33708;49.466;11.176;2022-10-22T05:04:07;11.07;;;3.27;;
4698;SDS011;33708;49.466;11.176;2022-10-22T05:06:35;12.10;;;3.20;;
4698;SDS011;33708;49.466;11.176;2022-10-22T05:09:02;11.37;;;3.10;;
4698;SDS011;33708;49.466;11.176;2022-10-22T05:11:31;9.90;;;2.87;;
4698;SDS011;33708;49.466;11.176;2022-10-22T05:13:59;11.27;;;3.57;;
4698;SDS011;33708;49.466;11.176;2022-10-22T05:16:27;8.87;;;2.73;;
4698;SDS011;33708;49.466;11.176;2022-10-22T05:18:53;9.17;;;3.20;;
4698;SDS011;33708;49.466;11.176;2022-10-22T05:21:19;12.57;;;3.13;;
4698;SDS011;33708;49.466;11.176;2022-10-22T05:23:46;15.63;;;3.10;;
4698;SDS011;33708;49.466;11.176;2022-10-22T05:26:14;15.40;;;3.80;;
4698;SDS011;33708;49.466;11.176;2022-10-22T05:28:43;10.50;;;3.30;;
4698;SDS011;33708;49.466;11.176;2022-10-22T05:31:10;24.33;;;2.90;;
4698;SDS011;33708;49.466;11.176;2022-10-22T05:33:37;19.60;;;3.40;;
4698;SDS011;33708;49.466;11.176;2022-10-22T05:36:03;16.10;;;3.37;;
4698;SDS011;33708;49.466;11.176;2022-10-22T05:38:31;17.83;;;2.87;;
4698;SDS011;33708;49.466;11.176;2022-10-22T05:41:02;10.80;;;3.13;;
4698;SDS011;33708;49.466;11.176;2022-10-22T05:43:30;13.03;;;2.30;;
4698;SDS011;33708;49.466;11.176;2022-10-22T05:45:56;13.33;;;2.83;;
4698;SDS011;33708;49.466;11.176;2022-10-22T05:48:29;13.10;;;3.40;;
4698;SDS011;33708;49.466;11.176;2022-10-22T05:50:55;13.70;;;2.97;;
4698;SDS011;33708;49.466;11.176;2022-10-22T05:53:21;8.60;;;2.50;;
4698;SDS011;33708;49.466;11.176;2022-10-22T05:55:46;11.40;;;2.60;;
4698;SDS011;33708;49.466;11.176;2022-10-22T05:58:12;8.10;;;2.80;;
4698;SDS011;33708;49.466;11.176;2022-10-22T06:00:38;14.50;;;3.80;;
4698;SDS011;33708;49.466;11.176;2022-10-22T06:03:04;7.67;;;2.60;;
4698;SDS011;33708;49.466;11.176;2022-10-22T06:05:30;16.20;;;2.83;;
4698;SDS011;33708;49.466;11.176;2022-10-22T06:07:59;11.07;;;3.10;;
4698;SDS011;33708;49.466;11.176;2022-10-22T06:10:26;8.80;;;2.70;;
4698;SDS011;33708;49.466;11.176;2022-10-22T06:12:51;11.70;;;2.70;;
4698;SDS011;33708;49.466;11.176;2022-10-22T06:15:17;9.03;;;2.37;;
4698;SDS011;33708;49.466;11.176;2022-10-22T06:17:44;9.10;;;3.20;;
4698;SDS011;33708;49.466;11.176;2022-10-22T06:20:10;14.20;;;3.30;;
4698;SDS011;33708;49.466;11.176;2022-10-22T06:22:36;9.67;;;2.90;;
4698;SDS011;33708;49.466;11.176;2022-10-22T06:25:03;10.17;;;2.43;;
4698;SDS011;33708;49.466;11.176;2022-10-22T06:27:29;11.37;;;2.90;;
4698;SDS011;33708;49.466;11.176;2022-10-22T06:29:55;7.87;;;2.40;;
4698;SDS011;33708;49.466;11.176;2022-10-22T06:32:20;10.23;;;2.50;;
4698;SDS011;33708;49.466;11.176;2022-10-22T06:34:46;20.80;;;3.30;;
4698;SDS011;33708;49.466;11.176;2022-10-22T06:37:12;15.30;;;3.87;;
4698;SDS011;33708;49.466;11.176;2022-10-22T06:39:39;11.50;;;3.27;;
4698;SDS011;33708;49.466;11.176;2022-10-22T06:42:05;20.70;;;3.47;;
4698;SDS011;33708;49.466;11.176;2022-10-22T06:44:30;14.73;;;3.63;;
4698;SDS011;33708;49.466;11.176;2022-10-22T06:46:56;13.67;;;3.20;;
4698;SDS011;33708;49.466;11.176;2022-10-22T06:49:22;13.20;;;3.97;;
4698;SDS011;33708;49.466;11.176;2022-10-22T06:51:48;9.30;;;3.83;;
4698;SDS011;33708;49.466;11.176;2022-10-22T06:54:15;15.80;;;4.33;;
4698;SDS011;33708;49.466;11.176;2022-10-22T06:56:40;13.47;;;4.40;;
4698;SDS011;33708;49.466;11.176;2022-10-22T06:59:06;9.13;;;3.87;;
4698;SDS011;33708;49.466;11.176;2022-10-22T07:01:33;9.70;;;3.17;;
4698;SDS011;33708;49.466;11.176;2022-10-22T07:03:59;10.30;;;2.97;;
4698;SDS011;33708;49.466;11.176;2022-10-22T07:06:26;13.90;;;2.67;;
4698;SDS011;33708;49.466;11.176;2022-10-22T07:08:53;19.80;;;3.17;;
4698;SDS011;33708;49.466;11.176;2022-10-22T07:11:20;7.60;;;2.20;;
4698;SDS011;33708;49.466;11.176;2022-10-22T07:13:47;7.40;;;2.53;;
4698;SDS011;33708;49.466;11.176;2022-10-22T07:16:14;8.97;;;2.33;;
4698;SDS011;33708;49.466;11.176;2022-10-22T07:18:40;9.30;;;2.50;;
4698;SDS011;33708;49.466;11.176;2022-10-22T07:21:07;14.73;;;2.63;;
4698;SDS011;33708;49.466;11.176;2022-10-22T07:23:34;13.73;;;2.60;;
4698;SDS011;33708;49.466;11.176;2022-10-22T07:26:00;8.90;;;2.73;;
4698;SDS011;33708;49.466;11.176;2022-10-22T07:28:27;17.70;;;2.77;;
4698;SDS011;33708;49.466;11.176;2022-10-22T07:30:53;9.60;;;3.10;;
4698;SDS011;33708;49.466;11.176;2022-10-22T07:33:19;8.97;;;3.03;;
4698;SDS011;33708;49.466;11.176;2022-10-22T07:35:45;8.50;;;2.87;;
4698;SDS011;33708;49.466;11.176;2022-10-22T07:38:10;8.73;;;3.13;;
4698;SDS011;33708;49.466;11.176;2022-10-22T07:40:36;12.60;;;2.77;;
4698;SDS011;33708;49.466;11.176;2022-10-22T07:43:02;16.30;;;3.70;;
4698;SDS011;33708;49.466;11.176;2022-10-22T07:45:28;11.40;;;3.50;;
4698;SDS011;33708;49.466;11.176;2022-10-22T07:47:54;12.40;;;3.20;;
4698;SDS011;33708;49.466;11.176;2022-10-22T07:50:19;12.00;;;3.30;;
4698;SDS011;33708;49.466;11.176;2022-10-22T07:52:45;7.13;;;2.50;;
4698;SDS011;33708;49.466;11.176;2022-10-22T07:55:11;11.13;;;2.53;;
4698;SDS011;33708;49.466;11.176;2022-10-22T07:57:37;9.13;;;2.13;;
4698;SDS011;33708;49.466;11.176;2022-10-22T08:00:07;9.80;;;2.47;;
4698;SDS011;33708;49.466;11.176;2022-10-22T08:02:35;11.93;;;2.20;;
4698;SDS011;33708;49.466;11.176;2022-10-22T08:05:01;7.20;;;1.67;;
4698;SDS011;33708;49.466;11.176;2022-10-22T08:07:26;6.70;;;1.70;;
4698;SDS011;33708;49.466;11.176;2022-10-22T08:09:52;8.10;;;1.83;;
4698;SDS011;33708;49.466;11.176;2022-10-22T08:12:17;9.47;;;2.03;;
4698;SDS011;33708;49.466;11.176;2022-10-22T08:14:43;12.00;;;2.50;;
4698;SDS011;33708;49.466;11.176;2022-10-22T08:17:09;14.10;;;1.50;;
4698;SDS011;33708;49.466;11.176;2022-10-22T08:19:34;10.80;;;1.80;;
4698;SDS011;33708;49.466;11.176;2022-10-22T08:22:00;12.33;;;1.97;;
4698;SDS011;33708;49.466;11.176;2022-10-22T08:24:26;9.93;;;2.00;;
4698;SDS011;33708;49.466;11.176;2022-10-22T08:26:52;10.00;;;1.90;;
4698;SDS011;33708;49.466;11.176;2022-10-22T08:29:19;8.00;;;1.70;;
4698;SDS011;33708;49.466;11.176;2022-10-22T08:31:47;9.00;;;1.40;;
4698;SDS011;33708;49.466;11.176;2022-10-22T08:34:13;12.03;;;1.90;;
4698;SDS011;33708;49.466;11.176;2022-10-22T08:36:39;7.40;;;1.67;;
4698;SDS011;33708;49.466;11.176;2022-10-22T08:39:05;8.23;;;1.57;;
4698;SDS011;33708;49.466;11.176;2022-10-22T08:41:31;9.53;;;1.40;;
4698;SDS011;33708;49.466;11.176;2022-10-22T08:49:50;10.50;;;1.70;;
4698;SDS011;33708;49.466;11.176;2022-10-22T08:52:17;11.43;;;1.70;;
4698;SDS011;33708;49.466;11.176;2022-10-22T08:54:52;7.80;;;1.53;;
4698;SDS011;33708;49.466;11.176;2022-10-22T08:57:25;8.67;;;1.93;;
4698;SDS011;33708;49.466;11.176;2022-10-22T09:00:11;8.57;;;1.30;;
4698;SDS011;33708;49.466;11.176;2022-10-22T09:03:21;10.63;;;1.40;;
4698;SDS011;33708;49.466;11.176;2022-10-22T09:06:08;9.53;;;1.43;;
4698;SDS011;33708;49.466;11.176;2022-10-22T09:08:38;7.90;;;1.20;;
4698;SDS011;33708;49.466;11.176;2022-10-22T09:13:52;6.50;;;1.33;;
4698;SDS011;33708;49.466;11.176;2022-10-22T09:22:01;6.90;;;1.50;;
4698;SDS011;33708;49.466;11.176;2022-10-22T09:24:57;6.00;;;1.50;;
4698;SDS011;33708;49.466;11.176;2022-10-22T09:27:34;8.87;;;1.30;;
4698;SDS011;33708;49.466;11.176;2022-10-22T09:30:00;5.67;;;1.10;;
4698;SDS011;33708;49.466;11.176;2022-10-22T09:32:26;7.30;;;1.40;;
4698;SDS011;33708;49.466;11.176;2022-10-22T09:34:54;8.73;;;1.30;;
4698;SDS011;33708;49.466;11.176;2022-10-22T09:37:24;7.50;;;1.60;;
4698;SDS011;33708;49.466;11.176;2022-10-22T09:39:52;8.23;;;1.30;;
4698;SDS011;33708;49.466;11.176;2022-10-22T09:42:19;8.80;;;1.50;;
4698;SDS011;33708;49.466;11.176;2022-10-22T09:44:51;6.70;;;1.40;;
4698;SDS011;33708;49.466;11.176;2022-10-22T09:50:36;6.30;;;1.50;;
4698;SDS011;33708;49.466;11.176;2022-10-22T09:53:05;6.70;;;1.27;;
4698;SDS011;33708;49.466;11.176;2022-10-22T09:55:59;9.77;;;1.77;;
4698;SDS011;33708;49.466;11.176;2022-10-22T09:58:39;5.93;;;1.30;;
4698;SDS011;33708;49.466;11.176;2022-10-22T10:01:14;6.63;;;1.57;;
4698;SDS011;33708;49.466;11.176;2022-10-22T10:03:42;7.70;;;1.40;;
4698;SDS011;33708;49.466;11.176;2022-10-22T10:06:07;7.93;;;1.43;;
4698;SDS011;33708;49.466;11.176;2022-10-22T10:08:33;6.53;;;1.10;;
4698;SDS011;33708;49.466;11.176;2022-10-22T10:11:00;7.40;;;1.10;;
4698;SDS011;33708;49.466;11.176;2022-10-22T10:24:50;8.57;;;1.23;;
4698;SDS011;33708;49.466;11.176;2022-10-22T10:33:59;6.20;;;1.10;;
4698;SDS011;33708;49.466;11.176;2022-10-22T10:36:42;7.87;;;1.40;;
4698;SDS011;33708;49.466;11.176;2022-10-22T10:50:29;6.90;;;1.17;;
4698;SDS011;33708;49.466;11.176;2022-10-22T10:55:52;13.50;;;1.10;;
4698;SDS011;33708;49.466;11.176;2022-10-22T11:01:17;8.93;;;1.07;;
4698;SDS011;33708;49.466;11.176;2022-10-22T11:07:13;6.30;;;1.03;;
4698;SDS011;33708;49.466;11.176;2022-10-22T11:09:47;12.97;;;1.30;;
4698;SDS011;33708;49.466;11.176;2022-10-22T11:12:22;11.63;;;1.20;;
4698;SDS011;33708;49.466;11.176;2022-10-22T11:17:51;16.83;;;1.33;;
4698;SDS011;33708;49.466;11.176;2022-10-22T11:20:28;7.97;;;1.00;;
4698;SDS011;33708;49.466;11.176;2022-10-22T11:22:58;6.13;;;0.80;;
4698;SDS011;33708;49.466;11.176;2022-10-22T11:25:39;5.73;;;0.87;;
4698;SDS011;33708;49.466;11.176;2022-10-22T11:28:13;12.87;;;1.10;;
4698;SDS011;33708;49.466;11.176;2022-10-22T11:30:44;6.97;;;1.20;;
4698;SDS011;33708;49.466;11.176;2022-10-22T11:33:17;7.93;;;0.90;;
4698;SDS011;33708;49.466;11.176;2022-10-22T11:35:45;10.77;;;0.90;;
4698;SDS011;33708;49.466;11.176;2022-10-22T11:38:16;11.57;;;0.97;;
4698;SDS011;33708;49.466;11.176;2022-10-22T11:41:00;7.50;;;1.00;;
4698;SDS011;33708;49.466;11.176;2022-10-22T11:43:31;6.70;;;1.03;;
4698;SDS011;33708;49.466;11.176;2022-10-22T11:48:42;7.30;;;1.00;;
4698;SDS011;33708;49.466;11.176;2022-10-22T11:53:57;8.50;;;1.07;;
4698;SDS011;33708;49.466;11.176;2022-10-22T11:56:25;7.83;;;0.90;;
4698;SDS011;33708;49.466;11.176;2022-10-22T11:58:53;7.60;;;0.80;;
4698;SDS011;33708;49.466;11.176;2022-10-22T12:01:24;8.00;;;1.20;;
4698;SDS011;33708;49.466;11.176;2022-10-22T12:06:24;12.97;;;1.70;;
4698;SDS011;33708;49.466;11.176;2022-10-22T12:11:22;7.53;;;1.10;;
4698;SDS011;33708;49.466;11.176;2022-10-22T12:16:28;7.67;;;1.10;;
4698;SDS011;33708;49.466;11.176;2022-10-22T12:21:42;8.03;;;1.70;;
4698;SDS011;33708;49.466;11.176;2022-10-22T12:24:13;14.97;;;1.13;;
4698;SDS011;33708;49.466;11.176;2022-10-22T12:26:41;7.63;;;1.00;;
4698;SDS011;33708;49.466;11.176;2022-10-22T12:29:11;13.27;;;1.30;;
4698;SDS011;33708;49.466;11.176;2022-10-22T12:31:39;6.97;;;1.23;;
4698;SDS011;33708;49.466;11.176;2022-10-22T12:34:09;7.30;;;1.10;;
4698;SDS011;33708;49.466;11.176;2022-10-22T12:36:38;7.33;;;1.20;;
4698;SDS011;33708;49.466;11.176;2022-10-22T12:39:08;6.03;;;1.00;;
4698;SDS011;33708;49.466;11.176;2022-10-22T12:41:37;6.10;;;0.97;;
4698;SDS011;33708;49.466;11.176;2022-10-22T12:44:04;10.00;;;1.33;;
4698;SDS011;33708;49.466;11.176;2022-10-22T12:46:30;10.63;;;1.10;;
4698;SDS011;33708;49.466;11.176;2022-10-22T12:48:59;9.40;;;1.10;;
4698;SDS011;33708;49.466;11.176;2022-10-22T12:51:35;6.83;;;0.90;;
4698;SDS011;33708;49.466;11.176;2022-10-22T12:54:03;8.53;;;1.03;;
4698;SDS011;33708;49.466;11.176;2022-10-22T12:56:32;7.40;;;0.83;;
4698;SDS011;33708;49.466;11.176;2022-10-22T12:59:04;9.50;;;0.90;;
4698;SDS011;33708;49.466;11.176;2022-10-22T13:01:38;9.27;;;1.00;;
4698;SDS011;33708;49.466;11.176;2022-10-22T13:06:44;13.00;;;1.13;;
4698;SDS011;33708;49.466;11.176;2022-10-22T13:09:16;8.60;;;1.27;;
4698;SDS011;33708;49.466;11.176;2022-10-22T13:14:24;6.90;;;1.00;;
4698;SDS011;33708;49.466;11.176;2022-10-22T13:17:08;13.87;;;1.23;;
4698;SDS011;33708;49.466;11.176;2022-10-22T13:19:43;7.53;;;1.00;;
4698;SDS011;33708;49.466;11.176;2022-10-22T13:22:28;7.10;;;1.20;;
4698;SDS011;33708;49.466;11.176;2022-10-22T13:27:44;12.30;;;1.00;;
4698;SDS011;33708;49.466;11.176;2022-10-22T13:30:50;6.60;;;1.10;;
4698;SDS011;33708;49.466;11.176;2022-10-22T13:33:04;9.77;;;1.00;;
4698;SDS011;33708;49.466;11.176;2022-10-22T13:35:43;6.37;;;1.00;;
4698;SDS011;33708;49.466;11.176;2022-10-22T13:38:19;9.23;;;1.30;;
4698;SDS011;33708;49.466;11.176;2022-10-22T13:40:47;5.60;;;1.00;;
4698;SDS011;33708;49.466;11.176;2022-10-22T13:43:14;6.60;;;0.90;;
4698;SDS011;33708;49.466;11.176;2022-10-22T13:45:40;7.93;;;1.00;;
4698;SDS011;33708;49.466;11.176;2022-10-22T13:48:08;7.20;;;1.20;;
4698;SDS011;33708;49.466;11.176;2022-10-22T13:50:38;5.27;;;0.80;;
4698;SDS011;33708;49.466;11.176;2022-10-22T13:53:04;6.50;;;1.00;;
4698;SDS011;33708;49.466;11.176;2022-10-22T13:55:32;8.83;;;0.83;;
4698;SDS011;33708;49.466;11.176;2022-10-22T13:58:02;8.17;;;1.40;;
4698;SDS011;33708;49.466;11.176;2022-10-22T14:00:35;7.87;;;1.40;;
4698;SDS011;33708;49.466;11.176;2022-10-22T14:03:02;9.13;;;1.20;;
4698;SDS011;33708;49.466;11.176;2022-10-22T14:05:29;6.00;;;1.00;;
4698;SDS011;33708;49.466;11.176;2022-10-22T14:07:58;10.47;;;1.13;;
4698;SDS011;33708;49.466;11.176;2022-10-22T14:10:24;7.50;;;1.10;;
4698;SDS011;33708;49.466;11.176;2022-10-22T14:12:51;5.43;;;0.70;;
4698;SDS011;33708;49.466;11.176;2022-10-22T14:15:17;11.80;;;1.10;;
4698;SDS011;33708;49.466;11.176;2022-10-22T14:17:46;10.17;;;1.10;;
4698;SDS011;33708;49.466;11.176;2022-10-22T14:20:15;8.10;;;1.27;;
4698;SDS011;33708;49.466;11.176;2022-10-22T14:22:43;9.07;;;1.20;;
4698;SDS011;33708;49.466;11.176;2022-10-22T14:25:12;14.27;;;1.27;;
4698;SDS011;33708;49.466;11.176;2022-10-22T14:27:40;8.50;;;1.00;;
4698;SDS011;33708;49.466;11.176;2022-10-22T14:30:05;13.00;;;1.10;;
4698;SDS011;33708;49.466;11.176;2022-10-22T14:32:31;6.33;;;0.90;;
4698;SDS011;33708;49.466;11.176;2022-10-22T14:34:57;7.03;;;0.90;;
4698;SDS011;33708;49.466;11.176;2022-10-22T14:37:24;6.10;;;1.07;;
4698;SDS011;33708;49.466;11.176;2022-10-22T14:39:49;9.30;;;0.80;;
4698;SDS011;33708;49.466;11.176;2022-10-22T14:42:25;8.20;;;1.03;;
4698;SDS011;33708;49.466;11.176;2022-10-22T14:44:51;7.57;;;1.00;;
4698;SDS011;33708;49.466;11.176;2022-10-22T14:47:17;11.43;;;1.03;;
4698;SDS011;33708;49.466;11.176;2022-10-22T14:49:43;7.97;;;1.10;;
4698;SDS011;33708;49.466;11.176;2022-10-22T14:52:08;7.60;;;0.90;;
4698;SDS011;33708;49.466;11.176;2022-10-22T14:54:34;10.23;;;1.40;;
4698;SDS011;33708;49.466;11.176;2022-10-22T14:57:03;5.33;;;0.80;;
4698;SDS011;33708;49.466;11.176;2022-10-22T14:59:29;7.53;;;1.17;;
4698;SDS011;33708;49.466;11.176;2022-10-22T15:01:55;7.47;;;1.17;;
4698;SDS011;33708;49.466;11.176;2022-10-22T15:04:21;7.43;;;1.13;;
4698;SDS011;33708;49.466;11.176;2022-10-22T15:06:47;7.60;;;1.40;;
4698;SDS011;33708;49.466;11.176;2022-10-22T15:09:12;11.43;;;1.30;;
4698;SDS011;33708;49.466;11.176;2022-10-22T15:11:38;9.47;;;1.50;;
4698;SDS011;33708;49.466;11.176;2022-10-22T15:14:05;7.23;;;1.60;;
4698;SDS011;33708;49.466;11.176;2022-10-22T15:16:31;8.80;;;1.40;;
4698;SDS011;33708;49.466;11.176;2022-10-22T15:18:57;13.13;;;1.37;;
4698;SDS011;33708;49.466;11.176;2022-10-22T15:21:23;10.77;;;1.40;;
4698;SDS011;33708;49.466;11.176;2022-10-22T15:23:49;14.03;;;1.80;;
4698;SDS011;33708;49.466;11.176;2022-10-22T15:26:15;9.67;;;1.40;;
4698;SDS011;33708;49.466;11.176;2022-10-22T15:28:41;12.23;;;1.57;;
4698;SDS011;33708;49.466;11.176;2022-10-22T15:31:07;9.93;;;1.10;;
4698;SDS011;33708;49.466;11.176;2022-10-22T15:33:35;6.80;;;1.00;;
4698;SDS011;33708;49.466;11.176;2022-10-22T15:36:08;8.00;;;1.00;;
4698;SDS011;33708;49.466;11.176;2022-10-22T15:38:36;11.50;;;1.00;;
4698;SDS011;33708;49.466;11.176;2022-10-22T15:41:02;12.80;;;1.30;;
4698;SDS011;33708;49.466;11.176;2022-10-22T15:43:28;19.63;;;1.30;;
4698;SDS011;33708;49.466;11.176;2022-10-22T15:46:08;27.80;;;2.37;;
4698;SDS011;33708;49.466;11.176;2022-10-22T15:48:35;10.87;;;1.47;;
4698;SDS011;33708;49.466;11.176;2022-10-22T15:51:06;23.93;;;1.60;;
4698;SDS011;33708;49.466;11.176;2022-10-22T15:53:35;14.83;;;1.83;;
4698;SDS011;33708;49.466;11.176;2022-10-22T15:56:01;21.57;;;1.37;;
4698;SDS011;33708;49.466;11.176;2022-10-22T15:58:27;15.27;;;1.17;;
4698;SDS011;33708;49.466;11.176;2022-10-22T16:00:52;14.30;;;1.30;;
4698;SDS011;33708;49.466;11.176;2022-10-22T16:03:18;28.67;;;1.83;;
4698;SDS011;33708;49.466;11.176;2022-10-22T16:05:50;17.07;;;1.73;;
4698;SDS011;33708;49.466;11.176;2022-10-22T16:08:18;16.70;;;1.90;;
4698;SDS011;33708;49.466;11.176;2022-10-22T16:10:45;19.40;;;1.70;;
4698;SDS011;33708;49.466;11.176;2022-10-22T16:13:12;14.37;;;1.57;;
4698;SDS011;33708;49.466;11.176;2022-10-22T16:15:38;23.67;;;1.30;;
4698;SDS011;33708;49.466;11.176;2022-10-22T16:18:04;8.50;;;0.90;;
4698;SDS011;33708;49.466;11.176;2022-10-22T16:20:30;9.67;;;1.30;;
4698;SDS011;33708;49.466;11.176;2022-10-22T16:22:55;11.10;;;2.17;;
4698;SDS011;33708;49.466;11.176;2022-10-22T16:25:21;16.40;;;1.33;;
4698;SDS011;33708;49.466;11.176;2022-10-22T16:27:50;16.33;;;1.40;;
4698;SDS011;33708;49.466;11.176;2022-10-22T16:30:16;17.03;;;1.60;;
4698;SDS011;33708;49.466;11.176;2022-10-22T16:32:42;22.40;;;2.33;;
4698;SDS011;33708;49.466;11.176;2022-10-22T16:35:07;15.30;;;1.27;;
4698;SDS011;33708;49.466;11.176;2022-10-22T16:37:33;11.40;;;1.20;;
4698;SDS011;33708;49.466;11.176;2022-10-22T16:39:59;15.27;;;1.63;;